sensor_id;sensor_type;location;lat;lon;timestamp;pressure;altitude;pressure_sealevel;temperature;humidity
20444;BME280;10381;53.730;10.010;2024-02-26T00:02:56;98847.25;;;-0.35;100.00
20444;BME280;10381;53.730;10.010;2024-02-26T00:06:57;98839.59;;;-0.85;100.00
20444;BME280;10381;53.730;10.010;2024-02-26T00:10:58;98831.09;;;-0.87;100.00
20444;BME280;10381;53.730;10.010;2024-02-26T00:14:58;98819.03;;;-0.88;100.00
20444;BME280;10381;53.730;10.010;2024-02-26T00:18:59;98805.94;;;-0.87;100.00
20444;BME280;10381;53.730;10.010;2024-02-26T00:22:59;98813.44;;;-0.95;100.00
20444;BME280;10381;53.730;10.010;2024-02-26T00:26:59;98819.97;;;-1.13;100.00
20444;BME280;10381;53.730;10.010;2024-02-26T00:30:59;98816.59;;;-0.78;100.00
20444;BME280;10381;53.730;10.010;2024-02-26T00:35:00;98802.44;;;-0.63;100.00
20444;BME280;10381;53.730;10.010;2024-02-26T00:39:00;98771.75;;;-0.47;100.00
20444;BME280;10381;53.730;10.010;2024-02-26T00:43:00;98744.75;;;-0.68;100.00
20444;BME280;10381;53.730;10.010;2024-02-26T00:47:00;98731.66;;;-1.02;100.00
20444;BME280;10381;53.730;10.010;2024-02-26T00:51:01;98704.50;;;-0.98;100.00
20444;BME280;10381;53.730;10.010;2024-02-26T00:55:05;98699.31;;;-0.98;100.00
20444;BME280;10381;53.730;10.010;2024-02-26T00:59:06;98694.75;;;-1.18;100.00
20444;BME280;10381;53.730;10.010;2024-02-26T01:03:06;98696.59;;;-1.32;100.00
20444;BME280;10381;53.730;10.010;2024-02-26T01:07:06;98693.94;;;-1.43;100.00
20444;BME280;10381;53.730;10.010;2024-02-26T01:11:07;98695.09;;;-1.47;100.00
20444;BME280;10381;53.730;10.010;2024-02-26T01:15:08;98691.84;;;-1.38;100.00
20444;BME280;10381;53.730;10.010;2024-02-26T01:19:08;98704.94;;;-1.63;100.00
20444;BME280;10381;53.730;10.010;2024-02-26T01:23:08;98709.47;;;-1.91;100.00
20444;BME280;10381;53.730;10.010;2024-02-26T01:27:09;98706.50;;;-1.74;100.00
20444;BME280;10381;53.730;10.010;2024-02-26T01:31:09;98705.09;;;-1.78;100.00
20444;BME280;10381;53.730;10.010;2024-02-26T01:35:10;98698.25;;;-1.55;100.00
20444;BME280;10381;53.730;10.010;2024-02-26T01:39:12;98697.72;;;-1.12;100.00
20444;BME280;10381;53.730;10.010;2024-02-26T01:43:12;98699.56;;;-0.90;100.00
20444;BME280;10381;53.730;10.010;2024-02-26T01:47:13;98710.31;;;-1.30;100.00
20444;BME280;10381;53.730;10.010;2024-02-26T01:51:14;98714.13;;;-1.46;100.00
20444;BME280;10381;53.730;10.010;2024-02-26T01:55:17;98728.91;;;-1.60;100.00
20444;BME280;10381;53.730;10.010;2024-02-26T01:59:18;98741.94;;;-1.73;100.00
20444;BME280;10381;53.730;10.010;2024-02-26T02:03:18;98738.41;;;-1.72;100.00
20444;BME280;10381;53.730;10.010;2024-02-26T02:07:19;98734.34;;;-1.39;100.00
20444;BME280;10381;53.730;10.010;2024-02-26T02:11:20;98741.41;;;-1.17;100.00
20444;BME280;10381;53.730;10.010;2024-02-26T02:15:21;98744.19;;;-1.31;100.00
20444;BME280;10381;53.730;10.010;2024-02-26T02:19:21;98765.25;;;-1.60;100.00
20444;BME280;10381;53.730;10.010;2024-02-26T02:23:22;98778.59;;;-1.77;100.00
20444;BME280;10381;53.730;10.010;2024-02-26T02:27:22;98779.56;;;-1.54;100.00
20444;BME280;10381;53.730;10.010;2024-02-26T02:31:23;98784.75;;;-1.54;100.00
20444;BME280;10381;53.730;10.010;2024-02-26T02:35:23;98788.47;;;-1.82;100.00
20444;BME280;10381;53.730;10.010;2024-02-26T02:39:24;98805.00;;;-1.96;100.00
20444;BME280;10381;53.730;10.010;2024-02-26T02:43:24;98808.13;;;-2.04;100.00
20444;BME280;10381;53.730;10.010;2024-02-26T02:47:24;98816.63;;;-2.02;100.00
20444;BME280;10381;53.730;10.010;2024-02-26T02:51:25;98833.66;;;-2.10;100.00
20444;BME280;10381;53.730;10.010;2024-02-26T02:55:25;98832.41;;;-2.18;100.00
20444;BME280;10381;53.730;10.010;2024-02-26T02:59:25;98837.28;;;-2.26;100.00
20444;BME280;10381;53.730;10.010;2024-02-26T03:03:25;98845.25;;;-2.29;100.00
20444;BME280;10381;53.730;10.010;2024-02-26T03:07:26;98846.63;;;-2.23;100.00
20444;BME280;10381;53.730;10.010;2024-02-26T03:11:26;98857.69;;;-2.34;100.00
20444;BME280;10381;53.730;10.010;2024-02-26T03:15:26;98859.31;;;-2.46;100.00
20444;BME280;10381;53.730;10.010;2024-02-26T03:19:27;98859.97;;;-2.42;100.00
20444;BME280;10381;53.730;10.010;2024-02-26T03:23:27;98860.78;;;-2.42;100.00
20444;BME280;10381;53.730;10.010;2024-02-26T03:27:27;98865.25;;;-2.44;100.00
20444;BME280;10381;53.730;10.010;2024-02-26T03:31:28;98863.53;;;-2.30;100.00
20444;BME280;10381;53.730;10.010;2024-02-26T03:35:28;98857.31;;;-1.89;100.00
20444;BME280;10381;53.730;10.010;2024-02-26T03:39:29;98869.66;;;-1.93;100.00
20444;BME280;10381;53.730;10.010;2024-02-26T03:43:29;98873.41;;;-1.84;100.00
20444;BME280;10381;53.730;10.010;2024-02-26T03:47:29;98886.56;;;-2.00;100.00
20444;BME280;10381;53.730;10.010;2024-02-26T03:51:29;98884.94;;;-2.01;100.00
20444;BME280;10381;53.730;10.010;2024-02-26T03:55:31;98893.63;;;-2.15;100.00
20444;BME280;10381;53.730;10.010;2024-02-26T03:59:31;98907.69;;;-2.32;100.00
20444;BME280;10381;53.730;10.010;2024-02-26T04:03:32;98921.69;;;-2.47;100.00
20444;BME280;10381;53.730;10.010;2024-02-26T04:07:32;98926.59;;;-2.30;100.00
20444;BME280;10381;53.730;10.010;2024-02-26T04:11:32;98926.66;;;-1.79;100.00
20444;BME280;10381;53.730;10.010;2024-02-26T04:15:33;98931.25;;;-1.69;100.00
20444;BME280;10381;53.730;10.010;2024-02-26T04:19:33;98918.34;;;-1.71;100.00
20444;BME280;10381;53.730;10.010;2024-02-26T04:23:33;98905.16;;;-1.55;100.00
20444;BME280;10381;53.730;10.010;2024-02-26T04:27:34;98908.50;;;-1.53;100.00
20444;BME280;10381;53.730;10.010;2024-02-26T04:31:34;98904.03;;;-1.51;100.00
20444;BME280;10381;53.730;10.010;2024-02-26T04:35:34;98900.88;;;-1.31;100.00
20444;BME280;10381;53.730;10.010;2024-02-26T04:39:37;98899.59;;;-1.12;100.00
20444;BME280;10381;53.730;10.010;2024-02-26T04:43:38;98901.56;;;-1.16;100.00
20444;BME280;10381;53.730;10.010;2024-02-26T04:47:44;98880.16;;;-1.56;100.00
20444;BME280;10381;53.730;10.010;2024-02-26T04:51:44;98881.50;;;-1.89;100.00
20444;BME280;10381;53.730;10.010;2024-02-26T04:55:44;98876.53;;;-1.92;100.00
20444;BME280;10381;53.730;10.010;2024-02-26T04:59:45;98869.78;;;-1.95;100.00
20444;BME280;10381;53.730;10.010;2024-02-26T05:03:45;98869.03;;;-2.09;100.00
20444;BME280;10381;53.730;10.010;2024-02-26T05:07:46;98867.38;;;-2.10;100.00
20444;BME280;10381;53.730;10.010;2024-02-26T05:11:46;98854.41;;;-1.98;100.00
20444;BME280;10381;53.730;10.010;2024-02-26T05:15:47;98833.44;;;-1.82;100.00
20444;BME280;10381;53.730;10.010;2024-02-26T05:19:49;98827.41;;;-1.69;100.00
20444;BME280;10381;53.730;10.010;2024-02-26T05:23:49;98828.09;;;-1.55;100.00
20444;BME280;10381;53.730;10.010;2024-02-26T05:27:49;98811.63;;;-1.42;100.00
20444;BME280;10381;53.730;10.010;2024-02-26T05:31:50;98829.94;;;-1.44;100.00
20444;BME280;10381;53.730;10.010;2024-02-26T05:35:50;98826.88;;;-1.25;100.00
20444;BME280;10381;53.730;10.010;2024-02-26T05:39:50;98835.34;;;-1.10;100.00
20444;BME280;10381;53.730;10.010;2024-02-26T05:43:50;98828.53;;;-1.00;100.00
20444;BME280;10381;53.730;10.010;2024-02-26T05:47:51;98821.88;;;-0.91;100.00
20444;BME280;10381;53.730;10.010;2024-02-26T05:51:51;98820.81;;;-0.89;100.00
20444;BME280;10381;53.730;10.010;2024-02-26T05:55:51;98815.53;;;-0.76;100.00
20444;BME280;10381;53.730;10.010;2024-02-26T05:59:52;98817.56;;;-0.68;100.00
20444;BME280;10381;53.730;10.010;2024-02-26T06:03:52;98818.19;;;-0.65;100.00
20444;BME280;10381;53.730;10.010;2024-02-26T06:07:52;98817.84;;;-0.60;100.00
20444;BME280;10381;53.730;10.010;2024-02-26T06:11:52;98812.41;;;-0.57;100.00
20444;BME280;10381;53.730;10.010;2024-02-26T06:15:53;98813.25;;;-0.56;100.00
20444;BME280;10381;53.730;10.010;2024-02-26T06:19:53;98808.53;;;-0.51;100.00
20444;BME280;10381;53.730;10.010;2024-02-26T06:23:54;98805.34;;;-0.44;100.00
20444;BME280;10381;53.730;10.010;2024-02-26T06:27:54;98802.34;;;-0.26;100.00
20444;BME280;10381;53.730;10.010;2024-02-26T06:31:55;98798.88;;;-0.27;100.00
20444;BME280;10381;53.730;10.010;2024-02-26T06:35:55;98771.94;;;-0.14;100.00
20444;BME280;10381;53.730;10.010;2024-02-26T06:39:56;98769.69;;;-0.08;100.00
20444;BME280;10381;53.730;10.010;2024-02-26T06:43:56;98768.03;;;-0.09;100.00
20444;BME280;10381;53.730;10.010;2024-02-26T06:47:56;98770.16;;;-0.03;100.00
20444;BME280;10381;53.730;10.010;2024-02-26T06:51:57;98764.84;;;0.10;100.00
20444;BME280;10381;53.730;10.010;2024-02-26T06:55:57;98764.25;;;0.18;100.00
20444;BME280;10381;53.730;10.010;2024-02-26T06:59:57;98754.91;;;0.27;100.00
20444;BME280;10381;53.730;10.010;2024-02-26T07:03:59;98735.47;;;0.31;100.00
20444;BME280;10381;53.730;10.010;2024-02-26T07:07:59;98731.41;;;0.38;100.00
20444;BME280;10381;53.730;10.010;2024-02-26T07:12:00;98724.16;;;0.53;100.00
20444;BME280;10381;53.730;10.010;2024-02-26T07:16:00;98705.31;;;0.60;100.00
20444;BME280;10381;53.730;10.010;2024-02-26T07:20:01;98707.66;;;0.75;100.00
20444;BME280;10381;53.730;10.010;2024-02-26T07:24:02;98699.44;;;0.79;100.00
20444;BME280;10381;53.730;10.010;2024-02-26T07:28:02;98675.94;;;0.91;100.00
20444;BME280;10381;53.730;10.010;2024-02-26T07:32:03;98669.81;;;0.80;100.00
20444;BME280;10381;53.730;10.010;2024-02-26T07:36:03;98663.16;;;0.88;100.00
20444;BME280;10381;53.730;10.010;2024-02-26T07:40:04;98672.25;;;0.93;100.00
20444;BME280;10381;53.730;10.010;2024-02-26T07:44:05;98662.88;;;0.91;100.00
20444;BME280;10381;53.730;10.010;2024-02-26T07:48:06;98655.03;;;1.02;100.00
20444;BME280;10381;53.730;10.010;2024-02-26T07:52:07;98645.41;;;1.23;100.00
20444;BME280;10381;53.730;10.010;2024-02-26T07:56:07;98649.53;;;1.26;100.00
20444;BME280;10381;53.730;10.010;2024-02-26T08:00:08;98656.78;;;1.22;100.00
20444;BME280;10381;53.730;10.010;2024-02-26T08:04:09;98660.53;;;1.30;100.00
20444;BME280;10381;53.730;10.010;2024-02-26T08:08:09;98665.78;;;1.39;100.00
20444;BME280;10381;53.730;10.010;2024-02-26T08:12:09;98668.44;;;1.49;100.00
20444;BME280;10381;53.730;10.010;2024-02-26T08:16:10;98673.88;;;1.57;100.00
20444;BME280;10381;53.730;10.010;2024-02-26T08:20:10;98672.97;;;1.78;100.00
20444;BME280;10381;53.730;10.010;2024-02-26T08:24:11;98682.50;;;1.88;100.00
20444;BME280;10381;53.730;10.010;2024-02-26T08:28:11;98681.16;;;1.94;100.00
20444;BME280;10381;53.730;10.010;2024-02-26T08:32:13;98685.84;;;2.00;100.00
20444;BME280;10381;53.730;10.010;2024-02-26T08:36:13;98678.16;;;2.08;100.00
20444;BME280;10381;53.730;10.010;2024-02-26T08:40:14;98684.75;;;2.03;100.00
20444;BME280;10381;53.730;10.010;2024-02-26T08:44:14;98690.31;;;2.19;100.00
20444;BME280;10381;53.730;10.010;2024-02-26T08:48:15;98702.03;;;2.34;100.00
20444;BME280;10381;53.730;10.010;2024-02-26T08:52:15;98709.31;;;2.31;100.00
20444;BME280;10381;53.730;10.010;2024-02-26T08:56:16;98714.28;;;2.44;100.00
20444;BME280;10381;53.730;10.010;2024-02-26T09:00:19;98724.88;;;2.52;100.00
20444;BME280;10381;53.730;10.010;2024-02-26T09:04:23;98738.13;;;2.70;100.00
20444;BME280;10381;53.730;10.010;2024-02-26T09:08:23;98756.59;;;2.88;100.00
20444;BME280;10381;53.730;10.010;2024-02-26T09:12:23;98780.00;;;2.99;100.00
20444;BME280;10381;53.730;10.010;2024-02-26T09:16:24;98817.31;;;2.91;100.00
20444;BME280;10381;53.730;10.010;2024-02-26T09:20:25;98848.72;;;3.11;100.00
20444;BME280;10381;53.730;10.010;2024-02-26T09:24:26;98902.72;;;3.22;100.00
20444;BME280;10381;53.730;10.010;2024-02-26T09:28:26;98927.25;;;3.30;100.00
20444;BME280;10381;53.730;10.010;2024-02-26T09:32:27;98958.50;;;3.32;100.00
20444;BME280;10381;53.730;10.010;2024-02-26T09:36:29;98983.91;;;3.51;100.00
20444;BME280;10381;53.730;10.010;2024-02-26T09:40:29;99013.00;;;3.57;100.00
20444;BME280;10381;53.730;10.010;2024-02-26T09:44:31;99038.53;;;3.65;100.00
20444;BME280;10381;53.730;10.010;2024-02-26T09:48:35;99068.06;;;3.87;100.00
20444;BME280;10381;53.730;10.010;2024-02-26T09:52:37;99084.69;;;4.16;100.00
20444;BME280;10381;53.730;10.010;2024-02-26T09:56:39;99092.97;;;4.21;100.00
20444;BME280;10381;53.730;10.010;2024-02-26T10:00:41;99110.50;;;4.40;100.00
20444;BME280;10381;53.730;10.010;2024-02-26T10:04:42;99130.38;;;4.43;100.00
20444;BME280;10381;53.730;10.010;2024-02-26T10:08:43;99147.91;;;4.72;100.00
20444;BME280;10381;53.730;10.010;2024-02-26T10:12:44;99164.91;;;4.67;100.00
20444;BME280;10381;53.730;10.010;2024-02-26T10:16:44;99179.94;;;4.65;100.00
20444;BME280;10381;53.730;10.010;2024-02-26T10:21:03;99070.81;;;4.92;100.00
20444;BME280;10381;53.730;10.010;2024-02-26T10:25:03;99102.19;;;4.94;100.00
20444;BME280;10381;53.730;10.010;2024-02-26T10:29:04;99158.81;;;4.96;100.00
20444;BME280;10381;53.730;10.010;2024-02-26T10:33:04;99202.72;;;5.13;100.00
20444;BME280;10381;53.730;10.010;2024-02-26T10:37:07;99270.84;;;5.05;100.00
20444;BME280;10381;53.730;10.010;2024-02-26T10:41:13;99333.16;;;5.13;100.00
20444;BME280;10381;53.730;10.010;2024-02-26T10:45:13;99388.38;;;5.02;100.00
20444;BME280;10381;53.730;10.010;2024-02-26T10:49:15;99445.75;;;5.06;100.00
20444;BME280;10381;53.730;10.010;2024-02-26T10:53:21;99500.63;;;5.19;100.00
20444;BME280;10381;53.730;10.010;2024-02-26T10:57:22;99569.94;;;5.38;100.00
20444;BME280;10381;53.730;10.010;2024-02-26T11:01:25;99618.97;;;5.27;100.00
20444;BME280;10381;53.730;10.010;2024-02-26T11:05:27;99669.59;;;5.29;100.00
20444;BME280;10381;53.730;10.010;2024-02-26T11:09:28;99711.16;;;5.24;100.00
20444;BME280;10381;53.730;10.010;2024-02-26T11:13:30;99752.19;;;5.25;100.00
20444;BME280;10381;53.730;10.010;2024-02-26T11:17:32;99801.13;;;4.94;100.00
20444;BME280;10381;53.730;10.010;2024-02-26T11:21:35;99834.06;;;4.98;100.00
20444;BME280;10381;53.730;10.010;2024-02-26T11:25:42;99836.16;;;5.16;100.00
20444;BME280;10381;53.730;10.010;2024-02-26T11:29:50;99838.84;;;5.58;100.00
20444;BME280;10381;53.730;10.010;2024-02-26T11:33:51;99871.00;;;5.50;100.00
20444;BME280;10381;53.730;10.010;2024-02-26T11:37:53;99902.81;;;5.36;100.00
20444;BME280;10381;53.730;10.010;2024-02-26T11:41:53;99932.97;;;5.52;100.00
20444;BME280;10381;53.730;10.010;2024-02-26T11:45:54;99939.13;;;5.63;100.00
20444;BME280;10381;53.730;10.010;2024-02-26T11:49:57;99997.19;;;5.71;100.00
20444;BME280;10381;53.730;10.010;2024-02-26T11:53:57;100023.56;;;5.81;100.00
20444;BME280;10381;53.730;10.010;2024-02-26T11:57:58;100064.59;;;5.49;100.00
20444;BME280;10381;53.730;10.010;2024-02-26T12:01:59;100051.75;;;5.90;100.00
20444;BME280;10381;53.730;10.010;2024-02-26T12:06:00;100106.84;;;5.69;100.00
20444;BME280;10381;53.730;10.010;2024-02-26T12:14:17;100127.28;;;5.54;100.00
20444;BME280;10381;53.730;10.010;2024-02-26T12:18:18;100129.66;;;5.57;100.00
20444;BME280;10381;53.730;10.010;2024-02-26T12:22:20;100118.31;;;5.34;100.00
20444;BME280;10381;53.730;10.010;2024-02-26T12:26:21;100113.16;;;5.55;100.00
20444;BME280;10381;53.730;10.010;2024-02-26T12:30:22;100125.81;;;5.39;100.00
20444;BME280;10381;53.730;10.010;2024-02-26T12:34:23;100124.78;;;5.41;100.00
20444;BME280;10381;53.730;10.010;2024-02-26T12:38:24;100137.28;;;5.15;100.00
20444;BME280;10381;53.730;10.010;2024-02-26T12:42:24;100129.28;;;5.28;100.00
20444;BME280;10381;53.730;10.010;2024-02-26T12:46:24;100124.06;;;5.39;100.00
20444;BME280;10381;53.730;10.010;2024-02-26T12:50:25;100133.09;;;5.24;100.00
20444;BME280;10381;53.730;10.010;2024-02-26T12:54:25;100121.66;;;5.47;100.00
20444;BME280;10381;53.730;10.010;2024-02-26T12:58:25;100138.84;;;5.63;100.00
20444;BME280;10381;53.730;10.010;2024-02-26T13:02:28;100184.81;;;5.46;100.00
20444;BME280;10381;53.730;10.010;2024-02-26T13:06:28;100193.78;;;5.32;100.00
20444;BME280;10381;53.730;10.010;2024-02-26T13:10:29;100187.31;;;5.25;100.00
20444;BME280;10381;53.730;10.010;2024-02-26T13:14:29;100168.09;;;5.36;100.00
20444;BME280;10381;53.730;10.010;2024-02-26T13:18:31;100161.88;;;5.25;100.00
20444;BME280;10381;53.730;10.010;2024-02-26T13:22:32;100176.19;;;5.21;100.00
20444;BME280;10381;53.730;10.010;2024-02-26T13:26:34;100188.03;;;5.38;100.00
20444;BME280;10381;53.730;10.010;2024-02-26T13:30:34;100210.50;;;5.42;100.00
20444;BME280;10381;53.730;10.010;2024-02-26T13:34:34;100224.75;;;5.51;100.00
20444;BME280;10381;53.730;10.010;2024-02-26T13:38:35;100242.91;;;5.65;100.00
20444;BME280;10381;53.730;10.010;2024-02-26T13:42:38;100252.13;;;5.71;100.00
20444;BME280;10381;53.730;10.010;2024-02-26T13:46:40;100277.47;;;5.83;100.00
20444;BME280;10381;53.730;10.010;2024-02-26T13:50:41;100293.94;;;5.74;100.00
20444;BME280;10381;53.730;10.010;2024-02-26T13:54:43;100324.00;;;5.70;100.00
20444;BME280;10381;53.730;10.010;2024-02-26T13:58:43;100324.31;;;5.89;100.00
20444;BME280;10381;53.730;10.010;2024-02-26T14:02:43;100326.69;;;5.81;100.00
20444;BME280;10381;53.730;10.010;2024-02-26T14:06:44;100299.44;;;5.82;100.00
20444;BME280;10381;53.730;10.010;2024-02-26T14:10:44;100321.19;;;5.84;100.00
20444;BME280;10381;53.730;10.010;2024-02-26T14:14:45;100335.00;;;5.64;100.00
20444;BME280;10381;53.730;10.010;2024-02-26T14:18:48;100318.59;;;5.49;100.00
20444;BME280;10381;53.730;10.010;2024-02-26T14:22:50;100299.16;;;5.63;100.00
20444;BME280;10381;53.730;10.010;2024-02-26T14:26:52;100321.19;;;5.73;100.00
20444;BME280;10381;53.730;10.010;2024-02-26T14:30:53;100312.31;;;5.74;100.00
20444;BME280;10381;53.730;10.010;2024-02-26T14:34:55;100320.84;;;5.78;100.00
20444;BME280;10381;53.730;10.010;2024-02-26T14:38:56;100329.19;;;5.83;100.00
20444;BME280;10381;53.730;10.010;2024-02-26T14:42:57;100334.91;;;5.76;100.00
20444;BME280;10381;53.730;10.010;2024-02-26T14:46:57;100337.13;;;5.59;100.00
20444;BME280;10381;53.730;10.010;2024-02-26T14:50:59;100343.16;;;5.37;100.00
20444;BME280;10381;53.730;10.010;2024-02-26T14:55:00;100324.63;;;5.38;100.00
20444;BME280;10381;53.730;10.010;2024-02-26T14:59:00;100304.19;;;5.30;100.00
20444;BME280;10381;53.730;10.010;2024-02-26T15:03:00;100290.19;;;5.19;100.00
20444;BME280;10381;53.730;10.010;2024-02-26T15:07:00;100290.34;;;5.04;100.00
20444;BME280;10381;53.730;10.010;2024-02-26T15:11:01;100294.03;;;5.02;100.00
20444;BME280;10381;53.730;10.010;2024-02-26T15:15:01;100298.19;;;4.93;100.00
20444;BME280;10381;53.730;10.010;2024-02-26T15:19:02;100276.31;;;4.93;100.00
20444;BME280;10381;53.730;10.010;2024-02-26T15:23:07;100263.78;;;4.85;100.00
20444;BME280;10381;53.730;10.010;2024-02-26T15:27:07;100247.28;;;4.83;100.00
20444;BME280;10381;53.730;10.010;2024-02-26T15:31:08;100245.63;;;4.82;100.00
20444;BME280;10381;53.730;10.010;2024-02-26T15:35:10;100247.47;;;4.68;100.00
20444;BME280;10381;53.730;10.010;2024-02-26T15:39:10;100257.44;;;4.63;100.00
20444;BME280;10381;53.730;10.010;2024-02-26T15:43:11;100256.94;;;4.58;100.00
20444;BME280;10381;53.730;10.010;2024-02-26T15:47:11;100248.81;;;4.50;100.00
20444;BME280;10381;53.730;10.010;2024-02-26T15:51:22;100246.94;;;4.39;100.00
20444;BME280;10381;53.730;10.010;2024-02-26T15:55:24;100234.78;;;4.38;100.00
20444;BME280;10381;53.730;10.010;2024-02-26T15:59:24;100237.81;;;4.32;100.00
20444;BME280;10381;53.730;10.010;2024-02-26T16:03:25;100230.69;;;4.34;100.00
20444;BME280;10381;53.730;10.010;2024-02-26T16:07:35;100230.59;;;4.36;100.00
20444;BME280;10381;53.730;10.010;2024-02-26T16:11:38;100245.69;;;4.32;100.00
20444;BME280;10381;53.730;10.010;2024-02-26T16:15:43;100265.41;;;4.25;100.00
20444;BME280;10381;53.730;10.010;2024-02-26T16:19:44;100265.66;;;4.22;100.00
20444;BME280;10381;53.730;10.010;2024-02-26T16:23:44;100268.25;;;4.22;100.00
20444;BME280;10381;53.730;10.010;2024-02-26T16:27:45;100263.75;;;4.11;100.00
20444;BME280;10381;53.730;10.010;2024-02-26T16:31:45;100267.56;;;4.07;100.00
20444;BME280;10381;53.730;10.010;2024-02-26T16:35:46;100255.81;;;4.00;100.00
20444;BME280;10381;53.730;10.010;2024-02-26T16:39:46;100270.50;;;3.90;100.00
20444;BME280;10381;53.730;10.010;2024-02-26T16:43:47;100273.63;;;3.82;100.00
20444;BME280;10381;53.730;10.010;2024-02-26T16:47:47;100278.88;;;3.69;100.00
20444;BME280;10381;53.730;10.010;2024-02-26T16:51:47;100269.97;;;3.59;100.00
20444;BME280;10381;53.730;10.010;2024-02-26T16:55:47;100252.47;;;3.47;100.00
20444;BME280;10381;53.730;10.010;2024-02-26T16:59:48;100229.41;;;3.39;100.00
20444;BME280;10381;53.730;10.010;2024-02-26T17:03:48;100216.72;;;3.33;100.00
20444;BME280;10381;53.730;10.010;2024-02-26T17:07:49;100196.00;;;3.30;100.00
20444;BME280;10381;53.730;10.010;2024-02-26T17:11:49;100177.88;;;3.27;100.00
20444;BME280;10381;53.730;10.010;2024-02-26T17:15:49;100161.41;;;3.25;100.00
20444;BME280;10381;53.730;10.010;2024-02-26T17:19:50;100158.09;;;3.23;100.00
20444;BME280;10381;53.730;10.010;2024-02-26T17:23:50;100141.22;;;3.14;100.00
20444;BME280;10381;53.730;10.010;2024-02-26T17:27:51;100129.59;;;3.18;100.00
20444;BME280;10381;53.730;10.010;2024-02-26T17:31:51;100124.16;;;3.08;100.00
20444;BME280;10381;53.730;10.010;2024-02-26T17:35:51;100114.75;;;3.06;100.00
20444;BME280;10381;53.730;10.010;2024-02-26T17:39:52;100108.34;;;3.10;100.00
20444;BME280;10381;53.730;10.010;2024-02-26T17:43:53;100109.06;;;3.12;100.00
20444;BME280;10381;53.730;10.010;2024-02-26T17:47:55;100109.59;;;3.04;100.00
20444;BME280;10381;53.730;10.010;2024-02-26T17:51:55;100102.69;;;3.03;100.00
20444;BME280;10381;53.730;10.010;2024-02-26T17:55:55;100116.72;;;2.89;100.00
20444;BME280;10381;53.730;10.010;2024-02-26T17:59:56;100113.13;;;2.77;100.00
20444;BME280;10381;53.730;10.010;2024-02-26T18:03:56;100098.47;;;2.75;100.00
20444;BME280;10381;53.730;10.010;2024-02-26T18:07:56;100087.16;;;2.62;100.00
20444;BME280;10381;53.730;10.010;2024-02-26T18:11:58;100079.59;;;2.57;100.00
20444;BME280;10381;53.730;10.010;2024-02-26T18:16:00;100061.44;;;2.55;100.00
20444;BME280;10381;53.730;10.010;2024-02-26T18:20:00;100068.28;;;2.44;100.00
20444;BME280;10381;53.730;10.010;2024-02-26T18:24:02;100071.50;;;2.34;100.00
20444;BME280;10381;53.730;10.010;2024-02-26T18:28:03;100063.22;;;2.28;100.00
20444;BME280;10381;53.730;10.010;2024-02-26T18:32:04;100055.16;;;2.18;100.00
20444;BME280;10381;53.730;10.010;2024-02-26T18:36:05;100058.81;;;2.16;100.00
20444;BME280;10381;53.730;10.010;2024-02-26T18:40:07;100058.84;;;2.01;100.00
20444;BME280;10381;53.730;10.010;2024-02-26T18:44:07;100059.56;;;1.90;100.00
20444;BME280;10381;53.730;10.010;2024-02-26T18:48:08;100053.53;;;1.76;100.00
20444;BME280;10381;53.730;10.010;2024-02-26T18:52:08;100058.03;;;1.74;100.00
20444;BME280;10381;53.730;10.010;2024-02-26T18:56:09;100051.66;;;1.78;100.00
20444;BME280;10381;53.730;10.010;2024-02-26T19:00:09;100054.88;;;1.68;100.00
20444;BME280;10381;53.730;10.010;2024-02-26T19:04:10;100048.16;;;1.64;100.00
20444;BME280;10381;53.730;10.010;2024-02-26T19:08:10;100051.53;;;1.52;100.00
20444;BME280;10381;53.730;10.010;2024-02-26T19:12:10;100050.63;;;1.39;100.00
20444;BME280;10381;53.730;10.010;2024-02-26T19:16:10;100050.25;;;1.31;100.00
20444;BME280;10381;53.730;10.010;2024-02-26T19:20:12;100063.88;;;1.21;100.00
20444;BME280;10381;53.730;10.010;2024-02-26T19:24:13;100062.75;;;1.11;100.00
20444;BME280;10381;53.730;10.010;2024-02-26T19:28:15;100070.75;;;1.08;100.00
20444;BME280;10381;53.730;10.010;2024-02-26T19:32:15;100054.81;;;1.27;100.00
20444;BME280;10381;53.730;10.010;2024-02-26T19:36:16;100052.41;;;1.24;100.00
20444;BME280;10381;53.730;10.010;2024-02-26T19:40:16;100046.63;;;1.19;100.00
20444;BME280;10381;53.730;10.010;2024-02-26T19:44:16;100053.44;;;1.07;100.00
20444;BME280;10381;53.730;10.010;2024-02-26T19:48:17;100042.91;;;1.09;100.00
20444;BME280;10381;53.730;10.010;2024-02-26T19:52:17;100039.28;;;1.11;100.00
20444;BME280;10381;53.730;10.010;2024-02-26T19:56:19;100038.34;;;1.12;100.00
20444;BME280;10381;53.730;10.010;2024-02-26T20:00:21;100034.22;;;1.22;100.00
20444;BME280;10381;53.730;10.010;2024-02-26T20:04:21;100024.78;;;1.48;100.00
20444;BME280;10381;53.730;10.010;2024-02-26T20:08:22;100013.25;;;1.65;100.00
20444;BME280;10381;53.730;10.010;2024-02-26T20:12:22;100012.22;;;1.68;100.00
20444;BME280;10381;53.730;10.010;2024-02-26T20:16:22;99998.13;;;1.70;100.00
20444;BME280;10381;53.730;10.010;2024-02-26T20:20:23;99993.91;;;1.82;100.00
20444;BME280;10381;53.730;10.010;2024-02-26T20:24:29;99983.91;;;1.89;100.00
20444;BME280;10381;53.730;10.010;2024-02-26T20:28:29;99984.44;;;1.94;100.00
20444;BME280;10381;53.730;10.010;2024-02-26T20:32:34;99977.78;;;2.03;100.00
20444;BME280;10381;53.730;10.010;2024-02-26T20:36:35;99973.91;;;2.08;100.00
20444;BME280;10381;53.730;10.010;2024-02-26T20:40:35;99972.78;;;2.12;100.00
20444;BME280;10381;53.730;10.010;2024-02-26T20:44:36;99972.03;;;2.10;100.00
20444;BME280;10381;53.730;10.010;2024-02-26T20:48:36;99969.03;;;2.17;100.00
20444;BME280;10381;53.730;10.010;2024-02-26T20:52:37;99970.31;;;2.24;100.00